• Join FlightAware (Why Join?)
  • Login
  • US Flag 
02:59PM EST


 

Airport Tracker/Info


-or-


 

Live Flight TrackerFlight Track Log ✈ AAL1071 ✈ 10-Jun-2013 ✈ KMIA - MDPC / PUJ

Flight Track Log - Related Links

Times and Time Zones

All times are in EDT time to prevent confusion due to time zone crossing. See the AAL1071 flight status page for this flight to view local times or setup timezone preferences in your user account.

Time Position Orientation Groundspeed Altitude Reporting Facility
EDT Latitude Longitude Course Direction KTS MPH feet Rate Location/Type
10:03AM 25.7960 -80.2870 267° West 19 22  Level FlightAware
10:03AM 25.7970 -80.2880 318° Northwest 26 30 35 Level FlightAware
10:04AM 25.7990 -80.2880 360° North 27 31 36 Level FlightAware
10:04AM 25.7990 -80.2890 270° West 23 26 38 Level FlightAware
10:05AM 25.7990 -80.2910 270° West 21 24 40 Level FlightAware
10:05AM 25.7990 -80.2920 270° West 21 24 43 Level FlightAware
10:06AM 25.7990 -80.2940 270° West 17 20 45 Level FlightAware
10:07AM 25.7990 -80.2950 270° West 15 17 49 Level FlightAware
10:08AM 25.7990 -80.2960 270° West 2 2 53 Level FlightAware
10:08AM 25.7990 -80.2970 270° West 15 17 59 Level FlightAware
10:10AM 25.7990 -80.2980 270° West 69 Level FlightAware
10:11AM 25.8000 -80.2990 318° Northwest 90 Level FlightAware
10:13AM 25.8000 -80.3000 270° West 24 28 141 Level FlightAware
10:14AM 25.8010 -80.2990 42° Northeast 57 66 245 Level FlightAware
10:14AM 25.8010 -80.2920 90° East 115 132 545 Level FlightAware
10:14AM 25.8020 -80.2690 87° East 169 194 400 1,585 Climbing FlightAware
10:15AM 25.7970 -80.2490 106° East 170 196 1,400 2,341 Climbing FlightAware
10:15AM 25.7920 -80.2360 113° Southeast 177 204 2,000 1,696 Climbing FlightAware
10:15AM 25.7790 -80.2060 116° Southeast 222 255 2,700 2,034 Climbing FlightAware
10:16AM 25.7700 -80.1710 106° East 247 284 4,000 2,836 Climbing FlightAware
10:16AM 25.7620 -80.1390 106° East 259 298 5,300 3,059 Climbing FlightAware
10:17AM 25.7550 -80.1060 103° East 265 305 6,600 3,222 Climbing FlightAware
10:17AM 25.7460 -80.0680 105° East 270 311 8,200 3,136 Climbing FlightAware
10:18AM 25.7410 -80.0470 105° East 272 313 8,900 2,464 Climbing FlightAware
10:18AM 25.7270 -79.9920 106° East 295 339 10,500 1,663 Climbing FlightAware
10:19AM 25.7110 -79.9210 104° East 352 405 11,200 1,610 Climbing FlightAware
10:20AM 25.6930 -79.8480 105° East 373 429 12,700 2,512 Climbing FlightAware
10:20AM 25.6720 -79.7620 105° East 378 435 14,800 2,581 Climbing FlightAware
10:21AM 25.6540 -79.6860 105° East 387 445 16,400 2,093 Climbing FlightAware
10:22AM 25.6330 -79.6000 105° East 403 464 17,800 2,023 Climbing FlightAware
10:22AM 25.6130 -79.5150 105° East 413 475 19,300 2,122 Climbing FlightAware
10:23AM 25.5920 -79.4290 105° East 421 484 20,700 1,929 Climbing FlightAware
10:24AM 25.5700 -79.3390 105° East 431 496 22,000 1,756 Climbing FlightAware
10:25AM 25.5500 -79.2570 105° East 439 505 23,100 1,704 Climbing FlightAware
10:25AM 25.5290 -79.1660 104° East 442 509 24,300 1,586 Climbing FlightAware
10:26AM 25.5060 -79.0630 104° East 451 519 25,400 1,320 Climbing FlightAware
10:27AM 25.4770 -78.9410 105° East 464 534 26,500 848 Climbing FlightAware
10:28AM 25.4600 -78.8640 104° East 465 535 26,700 703 Climbing FlightAware
10:29AM 25.4160 -78.6730 104° East 465 535 28,000 619 Climbing FlightAware
10:30AM 25.4000 -78.6020 104° East 465 535 28,000  Level FlightAware
10:30AM 25.3800 -78.5120 104° East 465 535 28,000  Level FlightAware
10:31AM 25.3630 -78.4390 104° East 465 535 28,000 3,767 Level FlightAware
10:32AM 25.2560 -78.2820 127° Southeast 468 539 33,400 4,200 Climbing FlightAware
10:33AM 25.2130 -78.1960 119° Southeast 460 529 34,300 1,200 Climbing FlightAware
10:33AM 25.1740 -78.1160 118° Southeast 459 528 35,000 553 Climbing FlightAware
10:34AM 25.1440 -78.0560 119° Southeast 467 537 35,000  Level FlightAware
10:35AM 25.0770 -77.9210 119° Southeast 469 540 35,000  Level FlightAware
10:36AM 25.0360 -77.8340 117° Southeast 469 540 35,000  Level FlightAware
10:36AM 25.0010 -77.7630 119° Southeast 469 540 35,000  Level FlightAware
10:37AM 24.9660 -77.6910 118° Southeast 469 540 35,000  Level FlightAware
10:38AM 24.9260 -77.6060 117° Southeast 469 540 35,000  Level FlightAware
10:38AM 24.8940 -77.5420 119° Southeast 469 540 35,000  Level FlightAware
10:39AM 24.8620 -77.4750 118° Southeast 469 540 35,000  Level FlightAware
10:40AM 24.8210 -77.3890 118° Southeast 469 540 35,000  Level FlightAware
10:40AM 24.7890 -77.3230 118° Southeast 469 540 35,000  Level FlightAware
10:41AM 24.7470 -77.2370 118° Southeast 469 540 35,000  Level FlightAware
10:42AM 24.7140 -77.1680 118° Southeast 469 540 35,000  Level FlightAware
10:43AM 24.6720 -77.0810 118° Southeast 469 540 35,000  Level FlightAware
10:43AM 24.6400 -77.0140 118° Southeast 469 540 35,000  Level FlightAware
10:44AM 24.6000 -76.9320 118° Southeast 469 540 35,000  Level FlightAware
10:45AM 24.4436 -76.6739 118° Southeast 477 549 35,000  Level Miami Center
10:46AM 24.3828 -76.5508 118° Southeast 472 543 35,000  Level Miami Center
10:47AM 24.3178 -76.4256 120° Southeast 472 543 35,000  Level Miami Center
10:48AM 24.2525 -76.3006 120° Southeast 472 543 35,000  Level Miami Center
10:49AM 24.1831 -76.1642 119° Southeast 467 537 35,000  Level Miami Center
10:50AM 24.1175 -76.0392 120° Southeast 467 537 35,000  Level Miami Center
10:51AM 24.0542 -75.9167 119° Southeast 467 537 35,000  Level Miami Center
10:52AM 23.9886 -75.7897 119° Southeast 467 537 35,000  Level Miami Center
10:53AM 23.9250 -75.6675 120° Southeast 467 537 35,000  Level Miami Center
10:54AM 23.8592 -75.5433 120° Southeast 467 537 35,000  Level Miami Center
10:55AM 23.7953 -75.4214 120° Southeast 467 537 35,000  Level Miami Center
10:56AM 23.7314 -75.3017 120° Southeast 462 532 35,000  Level Miami Center
10:57AM 23.6672 -75.1800 120° Southeast 462 532 35,000  Level Miami Center
10:58AM 23.6053 -75.0608 120° Southeast 462 532 35,000  Level Miami Center
10:59AM 23.5392 -74.9417 121° Southeast 462 532 35,000  Level Miami Center
11:00AM 23.4747 -74.8203 120° Southeast 462 532 35,000  Level Miami Center
11:01AM 23.4147 -74.7147 122° Southeast 462 532 35,000  Level Miami Center
11:02AM 23.3503 -74.5914 120° Southeast 462 532 35,000  Level Miami Center
11:03AM 23.2858 -74.4706 120° Southeast 462 532 35,000  Level Miami Center
11:04AM 23.2189 -74.3497 121° Southeast 468 539 35,000  Level Miami Center
11:05AM 23.1564 -74.2333 120° Southeast 462 532 35,000  Level Miami Center
11:06AM 23.0894 -74.1128 121° Southeast 462 532 35,000  Level Miami Center
11:07AM 23.0247 -73.9925 120° Southeast 468 539 35,000  Level Miami Center
11:08AM 22.9639 -73.8719 119° Southeast 463 533 35,000  Level Miami Center
11:09AM 22.8989 -73.7561 121° Southeast 458 527 35,000  Level Miami Center
11:10AM 22.8378 -73.6383 119° Southeast 448 516 35,000  Level Miami Center
11:11AM 22.7706 -73.5250 123° Southeast 448 516 35,000  Level Miami Center
11:12AM 22.7053 -73.4119 122° Southeast 443 510 35,000  Level Miami Center
11:13AM 22.6422 -73.2944 120° Southeast 443 510 35,000  Level Miami Center
11:14AM 22.5831 -73.1792 119° Southeast 443 510 35,000  Level Miami Center
11:15AM 22.5069 -73.0575 124° Southeast 438 504 35,000  Level Miami Center
11:16AM 22.4475 -72.9447 120° Southeast 438 504 35,000  Level Miami Center
11:17AM 22.3842 -72.8300 121° Southeast 438 504 35,000  Level Miami Center
11:18AM 22.3225 -72.7128 120° Southeast 438 504 35,000  Level Miami Center
11:19AM 22.2567 -72.5983 122° Southeast 438 504 35,000  Level Miami Center
11:20AM 22.1928 -72.4794 120° Southeast 438 504 35,000  Level Miami Center
11:21AM 22.1289 -72.3650 121° Southeast 443 510 35,000  Level Miami Center
11:22AM 22.0628 -72.2464 121° Southeast 443 510 35,000  Level Miami Center
11:23AM 21.9964 -72.1278 121° Southeast 449 517 35,000  Level Miami Center
11:24AM 21.9322 -72.0139 121° Southeast 449 517 35,000  Level Miami Center
11:25AM 21.8681 -71.8978 121° Southeast 449 517 35,000  Level Miami Center
11:26AM 21.8083 -71.7928 121° Southeast 449 517 35,000  Level Miami Center
11:27AM 21.7458 -71.6767 120° Southeast 449 517 35,000  Level Miami Center
11:28AM 21.6794 -71.5608 122° Southeast 449 517 35,000  Level Miami Center
11:29AM 21.6150 -71.4475 121° Southeast 449 517 35,000  Level Miami Center
11:30AM 21.5525 -71.3364 121° Southeast 443 510 35,000  Level Miami Center
11:31AM 21.4792 -71.2078 121° Southeast 443 510 35,000  Level Miami Center
11:32AM 21.4122 -71.0947 122° Southeast 443 510 35,000  Level Miami Center
11:33AM 21.3483 -71.0064 128° Southeast 443 510 35,000  Level Miami Center
11:34AM 21.2536 -70.8725 127° Southeast 475 547 35,000  Level Miami Center
11:35AM 21.1786 -70.7669 127° Southeast 467 537 35,000  Level Miami Center
11:36AM 21.1033 -70.6592 127° Southeast 462 532 35,000  Level Miami Center
11:37AM 21.0261 -70.5517 128° Southeast 462 532 35,000  Level Miami Center
11:38AM 20.9508 -70.4444 127° Southeast 462 532 35,000  Level Miami Center
11:39AM 20.8733 -70.3350 127° Southeast 457 526 35,000  Level Miami Center
11:40AM 20.7956 -70.2256 127° Southeast 457 526 35,000  Level Miami Center
11:41AM 20.7203 -70.1206 127° Southeast 457 526 35,000  Level Miami Center
11:42AM 20.6447 -70.0158 128° Southeast 451 519 35,000  Level Miami Center
11:43AM 20.5669 -69.9069 127° Southeast 451 519 35,000 -965 Level Miami Center
11:48AM 20.0040 -69.6960 127° Southeast 450 518 29,000 -1,073 Descending FlightAware
11:49AM 19.9230 -69.6780 168° South 452 520 28,600 -2,105 Descending FlightAware
11:49AM 19.9020 -69.6310 115° Southeast 474 545 27,000 -1,433 Descending FlightAware
11:50AM 19.8240 -69.5490 135° Southeast 473 544 27,000 -1,516 Level FlightAware
11:50AM 19.7590 -69.4830 136° Southeast 471 542 24,700 -3,000 Descending FlightAware
11:52AM 19.6480 -69.3670 135° Southeast 442 509 21,500 -2,390 Descending FlightAware
11:52AM 19.5860 -69.3030 136° Southeast 428 493 20,000 -2,071 Descending FlightAware
11:53AM 19.5300 -69.2440 135° Southeast 420 483 18,600 -2,049 Descending FlightAware
11:54AM 19.4710 -69.1840 136° Southeast 412 474 17,200 -1,862 Descending FlightAware
11:54AM 19.4100 -69.1190 135° Southeast 388 447 15,900 -929 Descending FlightAware
11:55AM 19.3630 -69.0720 137° Southeast 358 412 15,900  Level FlightAware
11:56AM 19.3280 -69.0360 136° Southeast 354 407 15,900 -1,099 Level FlightAware
11:56AM 19.2990 -68.9700 115° Southeast 354 407 14,600 -1,793 Descending FlightAware
11:57AM 19.2680 -68.9020 116° Southeast 346 398 13,300 -1,811 Descending FlightAware
11:57AM 19.2590 -68.8920 134° Southeast 348 400 13,000 -1,846 Descending FlightAware
11:57AM 19.2330 -68.8780 153° Southeast 346 398 12,500 -1,500 Descending FlightAware
11:58AM 19.1720 -68.8520 158° South 336 387 11,500 -1,000 Descending FlightAware
11:59AM 19.1100 -68.8390 169° South 311 358 11,100 -837 Descending FlightAware
12:00PM 19.0500 -68.8240 167° South 290 334 10,300 -1,114 Descending FlightAware
12:00PM 19.0200 -68.8080 153° Southeast 281 323 9,800 -982 Descending FlightAware
12:00PM 18.9870 -68.7890 151° Southeast 270 311 9,400 -1,132 Descending FlightAware
12:01PM 18.9600 -68.7740 152° Southeast 273 314 8,800 -1,263 Descending FlightAware
12:01PM 18.9230 -68.7530 152° Southeast 277 319 8,200 -1,138 Descending FlightAware
12:02PM 18.8940 -68.7370 152° Southeast 272 313 7,700 -1,222 Descending FlightAware
12:02PM 18.8630 -68.7200 153° Southeast 272 313 7,100 -1,227 Descending FlightAware
12:03PM 18.8460 -68.7100 151° Southeast 267 307 6,800 -714 Descending FlightAware
12:03PM 18.8160 -68.6940 153° Southeast 258 297 6,600 -421 Descending FlightAware
12:04PM 18.7860 -68.6770 152° Southeast 257 296 6,400 -724 Descending FlightAware
12:04PM 18.7560 -68.6600 152° Southeast 255 293 5,900 -923 Descending FlightAware
12:04PM 18.7300 -68.6460 153° Southeast 259 298 5,600 -900 Descending FlightAware
12:05PM 18.7130 -68.6360 151° Southeast 256 295 5,300 -764 Descending FlightAware
12:05PM 18.6740 -68.6140 152° Southeast 241 277 4,900 -706 Descending FlightAware
12:06PM 18.6460 -68.5990 153° Southeast 221 254 4,500 -931 Descending FlightAware
12:06PM 18.6210 -68.5850 152° Southeast 205 236 4,000 -828 Descending FlightAware
12:07PM 18.5970 -68.5740 157° South 187 215 3,700 -610 Descending FlightAware
12:07PM 18.5720 -68.5660 163° South 179 206 3,400 -545 Descending FlightAware
12:08PM 18.5520 -68.5600 164° South 177 204 3,200 -536 Descending FlightAware
12:08PM 18.5330 -68.5470 147° Southeast 164 189 2,900 -615 Descending FlightAware
12:08PM 18.5310 -68.5410 109° East 161 185 2,800 -789 Descending FlightAware
12:09PM 18.5330 -68.5190 85° East 150 173 2,400 -800 Descending FlightAware
12:09PM 18.5390 -68.4980 73° East 143 165 2,000 -667 Descending FlightAware
12:10PM 18.5420 -68.4880 72° East 140 161 1,900 -450 Descending FlightAware
12:10PM 18.5460 -68.4720 75° East 142 163 1,700 -638 Descending FlightAware
12:10PM 18.5500 -68.4570 74° East 141 162 1,400 -738 Descending FlightAware
12:11PM 18.5580 -68.4280 74° East 143 165 900 -740 Descending FlightAware
12:12PM 18.5630 -68.4100 74° East 138 159 500 -828 Descending FlightAware
12:12PM 18.5680 -68.3900 75° East 144 166 100 -857 Descending FlightAware
12:13PM 18.5730 -68.3720 74° East 125 144 -214 Descending FlightAware
12:13PM 18.5760 -68.3640 68° East 45 52  Level FlightAware
12:13PM 18.5760 -68.3620 90° East 32 37  Level FlightAware